Time,TemperatureF,DewpointF,PressureIn,WindDirection,WindDirectionDegrees,WindSpeedMPH,WindSpeedGustMPH,Humidity,HourlyPrecipIn,Conditions,Clouds,dailyrainin,SolarRadiationWatts/m^2,SoftwareType,DateUTC
2013-02-24 00:03:00,27.0,11.2,29.83,East,90,0.0,0.0,51,0.00,FEW,,0.00,0.0,WeatherDisplay:10.37,2013-02-23 23:03:00,
2013-02-24 00:08:00,26.8,11.0,29.83,East,90,0.0,0.0,51,0.00,FEW,,0.00,0.0,WeatherDisplay:10.37,2013-02-23 23:08:00,
2013-02-24 00:13:00,26.8,11.0,29.83,East,90,0.0,0.0,51,0.00,FEW,,0.00,0.0,WeatherDisplay:10.37,2013-02-23 23:13:00,
2013-02-24 00:18:00,26.6,11.3,29.83,East,90,0.0,0.0,52,0.00,FEW,,0.00,0.0,WeatherDisplay:10.37,2013-02-23 23:18:00,
2013-02-24 00:23:00,26.4,11.2,29.83,East,90,0.0,0.0,52,0.00,FEW,,0.00,0.0,WeatherDisplay:10.37,2013-02-23 23:23:00,
2013-02-24 00:28:00,26.8,11.0,29.83,East,90,2.3,0.0,51,0.00,FEW,,0.00,0.0,WeatherDisplay:10.37,2013-02-23 23:28:00,
2013-02-24 00:33:00,26.6,11.3,29.83,East,90,0.0,0.0,52,0.00,FEW,,0.00,0.0,WeatherDisplay:10.37,2013-02-23 23:33:00,
2013-02-24 00:38:00,25.7,10.9,29.83,East,90,0.0,0.0,53,0.00,FEW,,0.00,0.0,WeatherDisplay:10.37,2013-02-23 23:38:00,
2013-02-24 00:43:00,25.9,11.1,29.83,East,90,0.0,0.0,53,0.00,FEW,,0.00,0.0,WeatherDisplay:10.37,2013-02-23 23:43:00,
2013-02-24 00:48:00,25.9,11.1,29.83,East,90,0.0,0.0,53,0.00,FEW,,0.00,0.0,WeatherDisplay:10.37,2013-02-23 23:48:00,
2013-02-24 00:53:00,25.9,11.1,29.83,East,90,0.0,0.0,53,0.00,FEW,,0.00,0.0,WeatherDisplay:10.37,2013-02-23 23:53:00,
2013-02-24 00:58:00,26.1,11.2,29.83,East,90,0.0,0.0,53,0.00,FEW,,0.00,0.0,WeatherDisplay:10.37,2013-02-23 23:58:00,
2013-02-24 01:03:00,25.7,10.9,29.83,East,90,0.0,0.0,53,0.00,FEW,,0.00,0.0,WeatherDisplay:10.37,2013-02-24 00:03:00,
2013-02-24 01:08:00,25.7,11.3,29.83,East,90,3.5,3.5,54,0.00,FEW,,0.00,0.0,WeatherDisplay:10.37,2013-02-24 00:08:00,
2013-02-24 01:13:00,25.7,11.7,29.83,East,90,2.3,0.0,55,0.00,FEW,,0.00,0.0,WeatherDisplay:10.37,2013-02-24 00:13:00,
2013-02-24 01:18:00,25.9,11.9,29.83,East,90,0.0,0.0,55,0.00,FEW,,0.00,0.0,WeatherDisplay:10.37,2013-02-24 00:18:00,
2013-02-24 01:23:00,25.7,12.2,29.83,East,90,0.0,0.0,56,0.00,FEW,,0.00,0.0,WeatherDisplay:10.37,2013-02-24 00:23:00,
2013-02-24 01:28:00,25.5,12.0,29.83,ENE,68,2.3,2.3,56,0.00,FEW,,0.00,0.0,WeatherDisplay:10.37,2013-02-24 00:28:00,
2013-02-24 01:33:00,25.5,11.6,29.80,ENE,68,3.5,3.5,55,0.00,FEW,,0.00,0.0,WeatherDisplay:10.37,2013-02-24 00:33:00,
2013-02-24 01:38:00,25.3,11.4,29.80,ENE,68,0.0,0.0,55,0.00,FEW,,0.00,0.0,WeatherDisplay:10.37,2013-02-24 00:38:00,
2013-02-24 01:43:00,25.2,11.2,29.80,ENE,68,0.0,0.0,55,0.00,FEW,,0.00,0.0,WeatherDisplay:10.37,2013-02-24 00:43:00,
2013-02-24 01:48:00,25.3,11.4,29.83,NE,45,2.6,0.0,55,0.00,FEW,,0.00,0.0,WeatherDisplay:10.37,2013-02-24 00:48:00,
2013-02-24 01:53:00,25.2,11.6,29.83,NE,45,0.0,0.0,56,0.00,FEW,,0.00,0.0,WeatherDisplay:10.37,2013-02-24 00:53:00,
2013-02-24 01:58:00,25.2,11.6,29.83,NE,45,0.0,0.0,56,0.00,FEW,,0.00,0.0,WeatherDisplay:10.37,2013-02-24 00:58:00,
2013-02-24 02:03:00,25.2,12.4,29.80,NE,45,0.0,0.0,58,0.00,FEW,,0.00,0.0,WeatherDisplay:10.37,2013-02-24 01:03:00,
2013-02-24 02:09:00,25.2,12.4,29.80,NE,45,0.0,0.0,58,0.00,FEW,,0.00,0.0,WeatherDisplay:10.37,2013-02-24 01:09:00,
2013-02-24 02:14:00,25.0,12.7,29.80,NE,45,0.0,0.0,59,0.00,FEW,,0.00,0.0,WeatherDisplay:10.37,2013-02-24 01:14:00,
2013-02-24 02:19:00,25.0,12.7,29.83,NE,45,2.6,0.0,59,0.00,CLR,,0.00,0.0,WeatherDisplay:10.37,2013-02-24 01:19:00,
2013-02-24 02:24:00,24.8,12.9,29.83,NE,45,3.6,3.6,60,0.00,CLR,,0.00,0.0,WeatherDisplay:10.37,2013-02-24 01:24:00,
2013-02-24 02:29:00,24.4,12.9,29.83,NE,45,0.0,0.0,61,0.00,CLR,,0.00,0.0,WeatherDisplay:10.37,2013-02-24 01:29:00,
2013-02-24 02:34:00,24.8,13.6,29.80,NE,45,0.0,0.0,62,0.00,CLR,,0.00,0.0,WeatherDisplay:10.37,2013-02-24 01:34:00,
2013-02-24 02:39:00,24.4,13.6,29.80,NE,45,0.0,0.0,63,0.00,CLR,,0.00,0.0,WeatherDisplay:10.37,2013-02-24 01:39:00,
2013-02-24 02:44:00,24.3,13.5,29.80,NE,45,0.0,0.0,63,0.00,CLR,,0.00,0.0,WeatherDisplay:10.37,2013-02-24 01:44:00,
2013-02-24 02:49:00,24.4,14.0,29.83,NE,45,2.3,0.0,64,0.00,CLR,,0.00,0.0,WeatherDisplay:10.37,2013-02-24 01:49:00,
2013-02-24 02:54:00,24.1,13.7,29.83,NE,45,3.1,0.0,64,0.00,CLR,,0.00,0.0,WeatherDisplay:10.37,2013-02-24 01:54:00,
2013-02-24 02:59:00,23.9,13.5,29.83,NE,45,0.0,0.0,64,0.00,CLR,,0.00,0.0,WeatherDisplay:10.37,2013-02-24 01:59:00,
2013-02-24 03:04:00,24.3,13.8,29.80,NE,45,2.3,0.0,64,0.00,CLR,,0.00,0.0,WeatherDisplay:10.37,2013-02-24 02:04:00,
2013-02-24 03:09:00,24.1,14.0,29.80,NE,45,2.6,0.0,65,0.00,CLR,,0.00,0.0,WeatherDisplay:10.37,2013-02-24 02:09:00,
2013-02-24 03:14:00,23.7,13.7,29.80,NE,45,2.3,0.0,65,0.00,CLR,,0.00,0.0,WeatherDisplay:10.37,2013-02-24 02:14:00,
2013-02-24 03:19:00,23.5,13.8,29.80,NE,45,0.0,0.0,66,0.00,CLR,,0.00,0.0,WeatherDisplay:10.37,2013-02-24 02:19:00,
2013-02-24 03:24:00,23.5,13.8,29.80,NE,45,0.0,0.0,66,0.00,CLR,,0.00,0.0,WeatherDisplay:10.37,2013-02-24 02:24:00,
2013-02-24 03:29:00,23.5,14.2,29.80,NE,45,0.0,0.0,67,0.00,CLR,,0.00,0.0,WeatherDisplay:10.37,2013-02-24 02:29:00,
2013-02-24 03:34:00,23.7,14.7,29.80,NE,45,0.0,0.0,68,0.00,CLR,,0.00,0.0,WeatherDisplay:10.37,2013-02-24 02:34:00,
2013-02-24 03:39:00,23.7,14.7,29.80,NE,45,0.0,0.0,68,0.00,CLR,,0.00,0.0,WeatherDisplay:10.37,2013-02-24 02:39:00,
2013-02-24 03:44:00,23.9,15.2,29.80,NE,45,2.6,2.6,69,0.00,CLR,,0.00,0.0,WeatherDisplay:10.37,2013-02-24 02:44:00,
2013-02-24 03:49:00,23.7,15.4,29.80,NE,45,3.5,3.5,70,0.00,CLR,,0.00,0.0,WeatherDisplay:10.37,2013-02-24 02:49:00,
2013-02-24 03:54:00,23.9,15.5,29.80,NE,45,0.0,0.0,70,0.00,CLR,,0.00,0.0,WeatherDisplay:10.37,2013-02-24 02:54:00,
2013-02-24 03:59:00,24.1,16.0,29.80,NE,45,0.0,0.0,71,0.00,CLR,,0.00,0.0,WeatherDisplay:10.37,2013-02-24 02:59:00,
2013-02-24 04:04:00,23.9,15.9,29.80,NE,45,2.3,0.0,71,0.00,CLR,,0.00,0.0,WeatherDisplay:10.37,2013-02-24 03:04:00,
2013-02-24 04:09:00,23.9,15.9,29.80,NE,45,0.0,0.0,71,0.00,CLR,,0.00,0.0,WeatherDisplay:10.37,2013-02-24 03:09:00,
2013-02-24 04:14:00,23.7,15.7,29.80,NE,45,2.3,0.0,71,0.00,CLR,,0.00,0.0,WeatherDisplay:10.37,2013-02-24 03:14:00,
2013-02-24 04:19:00,23.7,16.0,29.80,NE,45,0.0,0.0,72,0.00,CLR,,0.00,0.0,WeatherDisplay:10.37,2013-02-24 03:19:00,
2013-02-24 04:24:00,23.9,16.2,29.80,NE,45,0.0,0.0,72,0.00,CLR,,0.00,0.0,WeatherDisplay:10.37,2013-02-24 03:24:00,
2013-02-24 04:29:00,23.9,16.5,29.80,NE,45,0.0,0.0,73,0.00,CLR,,0.00,0.0,WeatherDisplay:10.37,2013-02-24 03:29:00,
2013-02-24 04:34:00,23.9,16.5,29.80,NE,45,0.0,0.0,73,0.00,CLR,,0.00,0.0,WeatherDisplay:10.37,2013-02-24 03:34:00,
2013-02-24 04:39:00,23.7,16.3,29.80,NE,45,0.0,0.0,73,0.00,CLR,,0.00,0.0,WeatherDisplay:10.37,2013-02-24 03:39:00,
2013-02-24 04:44:00,23.2,15.8,29.80,NE,45,3.5,0.0,73,0.00,CLR,,0.00,0.0,WeatherDisplay:10.37,2013-02-24 03:44:00,
2013-02-24 04:49:00,22.8,15.8,29.80,NE,45,2.6,0.0,74,0.00,CLR,,0.00,0.0,WeatherDisplay:10.37,2013-02-24 03:49:00,
2013-02-24 04:54:00,22.8,16.1,29.80,NE,45,0.0,0.0,75,0.00,CLR,,0.00,0.0,WeatherDisplay:10.37,2013-02-24 03:54:00,
2013-02-24 04:59:00,22.3,15.6,29.80,NE,45,0.0,0.0,75,0.00,CLR,,0.00,0.0,WeatherDisplay:10.37,2013-02-24 03:59:00,
2013-02-24 05:04:00,22.5,16.0,29.80,NE,45,0.0,0.0,76,0.00,CLR,,0.00,0.0,WeatherDisplay:10.37,2013-02-24 04:04:00,
2013-02-24 05:09:00,22.5,16.3,29.80,NE,45,0.0,0.0,77,0.00,CLR,,0.00,0.0,WeatherDisplay:10.37,2013-02-24 04:09:00,
2013-02-24 05:14:00,22.3,16.2,29.80,NE,45,0.0,0.0,77,0.00,CLR,,0.00,0.0,WeatherDisplay:10.37,2013-02-24 04:14:00,
2013-02-24 05:19:00,22.3,16.5,29.80,NE,45,0.0,0.0,78,0.00,CLR,,0.00,0.0,WeatherDisplay:10.37,2013-02-24 04:19:00,
2013-02-24 05:24:00,21.9,16.1,29.80,NE,45,0.0,0.0,78,0.00,CLR,,0.00,0.0,WeatherDisplay:10.37,2013-02-24 04:24:00,
2013-02-24 05:29:00,22.3,16.5,29.80,North,0,0.0,0.0,78,0.00,CLR,,0.00,0.0,WeatherDisplay:10.37,2013-02-24 04:29:00,
2013-02-24 05:34:00,22.5,16.9,29.80,North,0,0.0,0.0,79,0.00,CLR,,0.00,0.0,WeatherDisplay:10.37,2013-02-24 04:34:00,
2013-02-24 05:39:00,21.9,16.1,29.80,North,0,0.0,0.0,78,0.00,CLR,,0.00,0.0,WeatherDisplay:10.37,2013-02-24 04:39:00,
2013-02-24 05:44:00,22.1,16.6,29.80,North,0,0.0,0.0,79,0.00,CLR,,0.00,0.0,WeatherDisplay:10.37,2013-02-24 04:44:00,
2013-02-24 05:49:00,21.9,16.4,29.80,North,0,0.0,0.0,79,0.00,CLR,,0.00,0.0,WeatherDisplay:10.37,2013-02-24 04:49:00,
2013-02-24 05:54:00,21.7,16.2,29.80,North,0,0.0,0.0,79,0.00,CLR,,0.00,0.0,WeatherDisplay:10.37,2013-02-24 04:54:00,
2013-02-24 05:59:00,21.9,16.7,29.80,North,0,0.0,3.1,80,0.00,CLR,,0.00,0.0,WeatherDisplay:10.37,2013-02-24 04:59:00,
2013-02-24 06:00:00,21.9,16.7,29.80,North,0,0.0,0.0,80,0.00,CLR,,0.00,0.0,WeatherDisplay:10.37,2013-02-24 05:00:00,
2013-02-24 06:04:00,21.9,16.7,29.83,North,0,0.0,0.0,80,0.00,CLR,,0.00,0.0,WeatherDisplay:10.37,2013-02-24 05:04:00,
2013-02-24 06:09:00,22.1,16.9,29.83,North,0,0.0,0.0,80,0.00,CLR,,0.00,0.0,WeatherDisplay:10.37,2013-02-24 05:09:00,
2013-02-24 06:14:00,21.7,16.2,29.83,NW,315,2.3,2.3,79,0.00,CLR,,0.00,0.0,WeatherDisplay:10.37,2013-02-24 05:14:00,
2013-02-24 06:19:00,21.7,16.5,29.83,NW,315,0.0,0.0,80,0.00,CLR,,0.00,0.0,WeatherDisplay:10.37,2013-02-24 05:19:00,
2013-02-24 06:24:00,21.7,16.5,29.83,NW,315,0.0,0.0,80,0.00,CLR,,0.00,0.0,WeatherDisplay:10.37,2013-02-24 05:24:00,
2013-02-24 06:29:00,21.6,16.3,29.83,NW,315,2.3,2.3,80,0.00,CLR,,0.00,0.0,WeatherDisplay:10.37,2013-02-24 05:29:00,
2013-02-24 06:34:00,21.6,16.6,29.83,NW,315,2.6,0.0,81,0.00,CLR,,0.00,0.0,WeatherDisplay:10.37,2013-02-24 05:34:00,
2013-02-24 06:39:00,21.4,16.5,29.83,North,0,3.5,3.5,81,0.00,CLR,,0.00,0.0,WeatherDisplay:10.37,2013-02-24 05:39:00,
2013-02-24 06:44:00,21.4,16.5,29.83,North,0,0.0,0.0,81,0.00,CLR,,0.00,0.0,WeatherDisplay:10.37,2013-02-24 05:44:00,
2013-02-24 06:49:00,21.2,16.3,29.83,North,0,0.0,0.0,81,0.00,CLR,,0.00,0.0,WeatherDisplay:10.37,2013-02-24 05:49:00,
2013-02-24 06:54:00,21.0,16.1,29.83,North,0,0.0,0.0,81,0.00,CLR,,0.00,0.0,WeatherDisplay:10.37,2013-02-24 05:54:00,
2013-02-24 06:59:00,21.0,16.4,29.83,North,0,0.0,0.0,82,0.00,CLR,,0.00,0.0,WeatherDisplay:10.37,2013-02-24 05:59:00,
2013-02-24 07:04:00,21.0,16.4,29.83,North,0,0.0,0.0,82,0.00,OVC,,0.00,0.0,WeatherDisplay:10.37,2013-02-24 06:04:00,
2013-02-24 07:09:00,21.2,16.6,29.83,North,0,0.0,0.0,82,0.00,OVC,,0.00,0.0,WeatherDisplay:10.37,2013-02-24 06:09:00,
2013-02-24 07:14:00,21.2,16.8,29.83,North,0,0.0,0.0,83,0.00,OVC,,0.00,0.0,WeatherDisplay:10.37,2013-02-24 06:14:00,
2013-02-24 07:19:00,21.0,16.7,29.83,North,0,0.0,0.0,83,0.00,FEW,,0.00,0.0,WeatherDisplay:10.37,2013-02-24 06:19:00,
2013-02-24 07:24:00,21.0,16.7,29.83,North,0,0.0,0.0,83,0.00,FEW,,0.00,0.0,WeatherDisplay:10.37,2013-02-24 06:24:00,
2013-02-24 07:29:00,21.0,16.7,29.83,North,0,0.0,0.0,83,0.00,FEW,,0.00,0.0,WeatherDisplay:10.37,2013-02-24 06:29:00,
2013-02-24 07:34:00,21.2,16.8,29.83,North,0,0.0,0.0,83,0.00,FEW,,0.00,0.0,WeatherDisplay:10.37,2013-02-24 06:34:00,
2013-02-24 07:39:00,21.4,17.0,29.83,West,270,0.0,0.0,83,0.00,FEW,,0.00,0.0,WeatherDisplay:10.37,2013-02-24 06:39:00,
2013-02-24 07:44:00,21.7,17.4,29.83,West,270,0.0,0.0,83,0.00,FEW,,0.00,1.1,WeatherDisplay:10.37,2013-02-24 06:44:00,
2013-02-24 07:49:00,21.7,17.1,29.83,West,270,3.5,3.5,82,0.00,FEW,,0.00,2.4,WeatherDisplay:10.37,2013-02-24 06:49:00,
2013-02-24 07:54:00,22.1,17.2,29.83,SW,225,4.6,4.6,81,0.00,FEW,,0.00,3.6,WeatherDisplay:10.37,2013-02-24 06:54:00,
2013-02-24 07:59:00,21.7,16.5,29.83,SW,225,0.0,0.0,80,0.00,FEW,,0.00,5.1,WeatherDisplay:10.37,2013-02-24 06:59:00,
2013-02-24 08:04:00,21.7,16.2,29.83,NW,315,2.6,0.0,79,0.00,FEW,,0.00,6.5,WeatherDisplay:10.37,2013-02-24 07:04:00,
2013-02-24 08:09:00,22.3,16.8,29.83,NW,315,0.0,0.0,79,0.00,FEW,,0.00,7.5,WeatherDisplay:10.37,2013-02-24 07:09:00,
2013-02-24 08:14:00,22.3,16.5,29.83,NW,315,0.0,0.0,78,0.00,FEW,,0.00,8.9,WeatherDisplay:10.37,2013-02-24 07:14:00,
2013-02-24 08:19:00,22.1,16.0,29.83,NW,315,0.0,0.0,77,0.00,FEW,,0.00,10.4,WeatherDisplay:10.37,2013-02-24 07:19:00,
2013-02-24 08:24:00,22.6,16.5,29.83,NW,315,3.1,0.0,77,0.00,FEW,,0.00,11.2,WeatherDisplay:10.37,2013-02-24 07:24:00,
2013-02-24 08:29:00,22.6,16.2,29.83,NW,315,0.0,0.0,76,0.00,FEW,,0.00,12.6,WeatherDisplay:10.37,2013-02-24 07:29:00,
2013-02-24 08:34:00,22.6,16.2,29.85,NW,315,2.6,2.6,76,0.00,FEW,,0.00,13.9,WeatherDisplay:10.37,2013-02-24 07:34:00,
2013-02-24 08:39:00,22.8,16.4,29.85,NW,315,0.0,0.0,76,0.00,FEW,,0.00,15.4,WeatherDisplay:10.37,2013-02-24 07:39:00,
2013-02-24 08:44:00,22.6,16.2,29.85,NW,315,0.0,0.0,76,0.00,FEW,,0.00,16.8,WeatherDisplay:10.37,2013-02-24 07:44:00,
2013-02-24 08:49:00,22.8,16.7,29.85,NW,315,0.0,0.0,77,0.00,FEW,,0.00,18.0,WeatherDisplay:10.37,2013-02-24 07:49:00,
2013-02-24 08:54:00,23.0,16.9,29.85,NW,315,2.3,0.0,77,0.00,FEW,,0.00,19.0,WeatherDisplay:10.37,2013-02-24 07:54:00,
2013-02-24 08:59:00,23.2,16.7,29.85,NW,315,2.3,0.0,76,0.00,FEW,,0.00,20.0,WeatherDisplay:10.37,2013-02-24 07:59:00,
2013-02-24 09:04:00,23.5,16.8,29.85,NW,315,2.3,0.0,75,0.00,FEW,,0.00,20.5,WeatherDisplay:10.37,2013-02-24 08:04:00,
2013-02-24 09:09:00,23.9,16.8,29.85,NW,315,3.5,3.5,74,0.00,FEW,,0.00,21.0,WeatherDisplay:10.37,2013-02-24 08:09:00,
2013-02-24 09:14:00,24.6,17.2,29.85,NW,315,0.0,0.0,73,0.00,FEW,,0.00,20.3,WeatherDisplay:10.37,2013-02-24 08:14:00,
2013-02-24 09:19:00,25.7,17.6,29.85,NW,315,0.0,0.0,71,0.00,FEW,,0.00,18.3,WeatherDisplay:10.37,2013-02-24 08:19:00,
2013-02-24 09:24:00,27.5,17.6,29.85,NW,315,0.0,0.0,66,0.00,FEW,,0.00,15.5,WeatherDisplay:10.37,2013-02-24 08:24:00,
2013-02-24 09:29:00,29.1,18.5,29.85,NW,315,0.0,0.0,64,0.00,FEW,,0.00,9.3,WeatherDisplay:10.37,2013-02-24 08:29:00,
2013-02-24 09:34:00,30.6,17.5,29.85,NW,315,0.0,0.0,58,0.00,FEW,,0.00,6.1,WeatherDisplay:10.37,2013-02-24 08:34:00,
2013-02-24 09:39:00,31.1,16.8,29.85,NW,315,2.3,0.0,55,0.00,FEW,,0.00,3.8,WeatherDisplay:10.37,2013-02-24 08:39:00,
2013-02-24 09:52:00,31.1,16.8,29.85,NW,315,0.0,0.0,55,0.00,OVC,,0.00,0.0,WeatherDisplay:10.37,2013-02-24 08:52:00,
2013-02-24 09:57:00,34.2,14.5,29.85,NW,315,2.3,0.0,44,0.00,FEW,,0.00,0.0,WeatherDisplay:10.37,2013-02-24 08:57:00,
2013-02-24 10:02:00,35.8,16.0,29.88,NW,315,0.0,0.0,44,0.00,FEW,,0.00,0.0,WeatherDisplay:10.37,2013-02-24 09:02:00,
2013-02-24 10:07:00,36.5,15.0,29.88,NW,315,2.3,0.0,41,0.00,FEW,,0.00,0.0,WeatherDisplay:10.37,2013-02-24 09:07:00,
2013-02-24 10:12:00,35.1,14.2,29.88,North,0,4.9,4.9,42,0.00,FEW,,0.00,0.0,WeatherDisplay:10.37,2013-02-24 09:12:00,
2013-02-24 10:17:00,35.4,15.1,29.88,North,0,0.0,0.0,43,0.00,FEW,,0.00,0.0,WeatherDisplay:10.37,2013-02-24 09:17:00,
2013-02-24 10:22:00,36.1,15.2,29.88,North,0,0.0,0.0,42,0.00,FEW,,0.00,0.0,WeatherDisplay:10.37,2013-02-24 09:22:00,
2013-02-24 10:27:00,36.5,15.0,29.88,North,0,2.3,0.0,41,0.00,FEW,,0.00,0.0,WeatherDisplay:10.37,2013-02-24 09:27:00,
2013-02-24 10:32:00,37.6,14.8,29.85,North,0,2.3,2.3,39,0.00,FEW,,0.00,0.0,WeatherDisplay:10.37,2013-02-24 09:32:00,
2013-02-24 10:37:00,37.6,14.8,29.85,North,0,0.0,2.2,39,0.00,FEW,,0.00,0.0,WeatherDisplay:10.37,2013-02-24 09:37:00,
2013-02-24 10:42:00,38.3,14.3,29.85,North,0,2.3,2.3,37,0.00,FEW,,0.00,0.0,WeatherDisplay:10.37,2013-02-24 09:42:00,
2013-02-24 10:47:00,38.3,14.3,29.85,North,0,2.3,2.3,37,0.00,FEW,,0.00,0.0,WeatherDisplay:10.37,2013-02-24 09:47:00,
2013-02-24 10:52:00,37.4,13.5,29.85,NE,45,4.6,4.6,37,0.00,FEW,,0.00,0.0,WeatherDisplay:10.37,2013-02-24 09:52:00,
2013-02-24 10:57:00,37.8,13.8,29.85,NE,45,2.3,2.3,37,0.00,FEW,,0.00,0.0,WeatherDisplay:10.37,2013-02-24 09:57:00,
2013-02-24 11:02:00,37.8,13.8,29.85,NE,45,0.0,2.2,37,0.00,FEW,,0.00,0.0,WeatherDisplay:10.37,2013-02-24 10:02:00,
2013-02-24 11:07:00,37.8,13.8,29.85,NE,45,0.0,2.2,37,0.00,FEW,,0.00,0.0,WeatherDisplay:10.37,2013-02-24 10:07:00,
2013-02-24 11:12:00,37.8,13.8,29.85,NE,45,0.0,2.2,37,0.00,FEW,,0.00,0.0,WeatherDisplay:10.37,2013-02-24 10:12:00,
2013-02-24 11:17:00,37.8,13.8,29.85,NE,45,0.0,2.2,37,0.00,FEW,,0.00,0.0,WeatherDisplay:10.37,2013-02-24 10:17:00,
2013-02-24 11:22:00,37.8,13.8,29.85,NE,45,0.0,2.2,37,0.00,FEW,,0.00,0.0,WeatherDisplay:10.37,2013-02-24 10:22:00,
2013-02-24 11:27:00,37.8,13.8,29.85,NE,45,0.0,2.2,37,0.00,FEW,,0.00,0.0,WeatherDisplay:10.37,2013-02-24 10:27:00,
2013-02-24 11:32:00,37.8,13.8,29.85,NE,45,0.0,2.2,37,0.00,FEW,,0.00,0.0,WeatherDisplay:10.37,2013-02-24 10:32:00,
2013-02-24 11:37:00,37.8,13.8,29.85,NE,45,0.0,2.2,37,0.00,FEW,,0.00,0.0,WeatherDisplay:10.37,2013-02-24 10:37:00,
2013-02-24 11:42:00,39.4,15.2,29.85,NE,45,2.6,2.6,37,0.00,FEW,,0.00,0.0,WeatherDisplay:10.37,2013-02-24 10:42:00,
2013-02-24 11:47:00,39.2,14.4,29.88,NE,45,2.6,3.1,36,0.00,FEW,,0.00,0.0,WeatherDisplay:10.37,2013-02-24 10:47:00,
2013-02-24 11:52:00,39.2,14.4,29.88,NE,45,4.6,0.0,36,0.00,FEW,,0.00,0.0,WeatherDisplay:10.37,2013-02-24 10:52:00,
2013-02-24 11:57:00,39.2,14.4,29.88,NE,45,2.3,2.6,36,0.00,FEW,,0.00,0.0,WeatherDisplay:10.37,2013-02-24 10:57:00,
2013-02-24 12:02:00,39.9,14.4,29.88,NE,45,2.3,0.0,35,0.00,FEW,,0.00,0.0,WeatherDisplay:10.37,2013-02-24 11:02:00,
2013-02-24 12:07:00,39.0,13.0,29.88,ENE,68,4.6,4.6,34,0.00,FEW,,0.00,0.0,WeatherDisplay:10.37,2013-02-24 11:07:00,
2013-02-24 12:12:00,39.2,13.1,29.88,ENE,68,4.6,4.6,34,0.00,FEW,,0.00,0.0,WeatherDisplay:10.37,2013-02-24 11:12:00,
2013-02-24 12:17:00,39.0,13.0,29.88,ENE,68,4.6,4.6,34,0.00,FEW,,0.00,0.0,WeatherDisplay:10.37,2013-02-24 11:17:00,
2013-02-24 12:22:00,39.2,12.5,29.88,ENE,68,5.4,0.0,33,0.00,FEW,,0.00,0.0,WeatherDisplay:10.37,2013-02-24 11:22:00,
2013-02-24 12:27:00,39.0,13.0,29.88,East,90,4.6,4.6,34,0.00,FEW,,0.00,0.0,WeatherDisplay:10.37,2013-02-24 11:27:00,
2013-02-24 12:32:00,39.4,12.6,29.88,ENE,68,6.7,0.0,33,0.00,FEW,,0.00,0.0,WeatherDisplay:10.37,2013-02-24 11:32:00,
2013-02-24 12:37:00,39.2,11.0,29.88,ENE,68,4.6,4.6,31,0.00,FEW,,0.00,0.0,WeatherDisplay:10.37,2013-02-24 11:37:00,
2013-02-24 12:42:00,39.2,11.0,29.88,NE,45,4.6,4.6,31,0.00,FEW,,0.00,0.0,WeatherDisplay:10.37,2013-02-24 11:42:00,
2013-02-24 12:47:00,39.7,11.5,29.88,NE,45,2.6,0.0,31,0.00,FEW,,0.00,0.0,WeatherDisplay:10.37,2013-02-24 11:47:00,
2013-02-24 12:52:00,39.9,10.9,29.88,NE,45,4.6,4.6,30,0.00,FEW,,0.00,0.0,WeatherDisplay:10.37,2013-02-24 11:52:00,
2013-02-24 12:57:00,39.9,10.9,29.88,NE,45,5.8,5.8,30,0.00,FEW,,0.00,0.0,WeatherDisplay:10.37,2013-02-24 11:57:00,
2013-02-24 13:02:00,39.7,10.8,29.88,NE,45,5.8,5.8,30,0.00,FEW,,0.00,0.0,WeatherDisplay:10.37,2013-02-24 12:02:00,
2013-02-24 13:07:00,39.7,10.8,29.88,NE,45,4.6,4.6,30,0.00,FEW,,0.00,0.0,WeatherDisplay:10.37,2013-02-24 12:07:00,
2013-02-24 13:12:00,39.9,10.9,29.88,NE,45,5.8,5.8,30,0.00,FEW,,0.00,0.0,WeatherDisplay:10.37,2013-02-24 12:12:00,
2013-02-24 13:17:00,40.1,11.1,29.88,NE,45,5.8,5.8,30,0.00,FEW,,0.00,0.0,WeatherDisplay:10.37,2013-02-24 12:17:00,
2013-02-24 13:22:00,40.5,11.4,29.88,NE,45,5.9,5.9,30,0.00,FEW,,0.00,0.0,WeatherDisplay:10.37,2013-02-24 12:22:00,
2013-02-24 13:27:00,40.5,11.4,29.88,NE,45,4.6,4.6,30,0.00,FEW,,0.00,0.0,WeatherDisplay:10.37,2013-02-24 12:27:00,
2013-02-24 13:32:00,41.0,11.1,29.88,NE,45,2.6,0.0,29,0.00,FEW,,0.00,0.0,WeatherDisplay:10.37,2013-02-24 12:32:00,
2013-02-24 13:37:00,40.5,10.7,29.88,NE,45,5.9,5.9,29,0.00,FEW,,0.00,0.0,WeatherDisplay:10.37,2013-02-24 12:37:00,
2013-02-24 13:42:00,40.5,10.7,29.88,NE,45,4.6,4.6,29,0.00,FEW,,0.00,0.0,WeatherDisplay:10.37,2013-02-24 12:42:00,
2013-02-24 13:47:00,41.5,11.6,29.88,NE,45,0.0,0.0,29,0.00,FEW,,0.00,0.0,WeatherDisplay:10.37,2013-02-24 12:47:00,
2013-02-24 13:52:00,41.9,11.9,29.88,NE,45,5.8,5.8,29,0.00,FEW,,0.00,0.0,WeatherDisplay:10.37,2013-02-24 12:52:00,
2013-02-24 13:57:00,42.3,12.2,29.88,NE,45,2.3,0.0,29,0.00,FEW,,0.00,0.0,WeatherDisplay:10.37,2013-02-24 12:57:00,
2013-02-24 14:02:00,41.9,11.9,29.88,NE,45,3.6,3.6,29,0.00,FEW,,0.00,0.0,WeatherDisplay:10.37,2013-02-24 13:02:00,
2013-02-24 14:07:00,42.3,12.2,29.88,NE,45,2.3,0.0,29,0.00,FEW,,0.00,0.0,WeatherDisplay:10.37,2013-02-24 13:07:00,
2013-02-24 14:12:00,42.6,12.5,29.88,NE,45,2.3,0.0,29,0.00,FEW,,0.00,0.0,WeatherDisplay:10.37,2013-02-24 13:12:00,
2013-02-24 14:17:00,42.4,12.4,29.85,NE,45,2.3,2.3,29,0.00,BKN,,0.00,0.0,WeatherDisplay:10.37,2013-02-24 13:17:00,
2013-02-24 14:22:00,41.9,11.9,29.85,NE,45,3.5,3.5,29,0.00,BKN,,0.00,0.0,WeatherDisplay:10.37,2013-02-24 13:22:00,
2013-02-24 14:27:00,41.9,11.9,29.85,NE,45,0.0,0.0,29,0.00,BKN,,0.00,0.0,WeatherDisplay:10.37,2013-02-24 13:27:00,
2013-02-24 14:32:00,42.4,12.4,29.88,NE,45,0.0,0.0,29,0.00,BKN,,0.00,0.0,WeatherDisplay:10.37,2013-02-24 13:32:00,
2013-02-24 14:37:00,42.4,12.4,29.88,NE,45,3.5,0.0,29,0.00,BKN,,0.00,0.0,WeatherDisplay:10.37,2013-02-24 13:37:00,
2013-02-24 14:42:00,42.4,12.4,29.88,NE,45,0.0,0.0,29,0.00,BKN,,0.00,0.0,WeatherDisplay:10.37,2013-02-24 13:42:00,
2013-02-24 14:47:00,41.9,11.9,29.88,NE,45,3.5,0.0,29,0.00,BKN,,0.00,0.0,WeatherDisplay:10.37,2013-02-24 13:47:00,
2013-02-24 14:52:00,41.4,11.4,29.88,NE,45,5.8,5.8,29,0.00,BKN,,0.00,0.0,WeatherDisplay:10.37,2013-02-24 13:52:00,
2013-02-24 14:57:00,41.0,11.1,29.88,NE,45,4.6,4.6,29,0.00,BKN,,0.00,0.0,WeatherDisplay:10.37,2013-02-24 13:57:00,
2013-02-24 15:02:00,41.2,12.0,29.88,NE,45,0.0,0.0,30,0.00,BKN,,0.00,0.0,WeatherDisplay:10.37,2013-02-24 14:02:00,
2013-02-24 15:08:00,41.2,12.0,29.88,NE,45,3.5,3.5,30,0.00,BKN,,0.00,0.0,WeatherDisplay:10.37,2013-02-24 14:08:00,
2013-02-24 15:13:00,41.2,12.0,29.88,NE,45,3.5,0.0,30,0.00,BKN,,0.00,0.0,WeatherDisplay:10.37,2013-02-24 14:13:00,
2013-02-24 15:18:00,41.0,11.9,29.88,NE,45,3.5,3.5,30,0.00,BKN,,0.00,0.0,WeatherDisplay:10.37,2013-02-24 14:18:00,
2013-02-24 15:23:00,41.0,11.9,29.88,NE,45,4.6,4.6,30,0.00,BKN,,0.00,0.0,WeatherDisplay:10.37,2013-02-24 14:23:00,
2013-02-24 15:28:00,41.0,11.9,29.88,NE,45,3.6,3.6,30,0.00,BKN,,0.00,0.0,WeatherDisplay:10.37,2013-02-24 14:28:00,
2013-02-24 15:33:00,41.2,12.0,29.88,NE,45,0.0,0.0,30,0.00,BKN,,0.00,0.0,WeatherDisplay:10.37,2013-02-24 14:33:00,
2013-02-24 15:38:00,41.7,12.5,29.88,NE,45,2.6,0.0,30,0.00,BKN,,0.00,0.0,WeatherDisplay:10.37,2013-02-24 14:38:00,
2013-02-24 15:43:00,41.5,12.4,29.88,NE,45,0.0,2.2,30,0.00,BKN,,0.00,0.0,WeatherDisplay:10.37,2013-02-24 14:43:00,
2013-02-24 15:48:00,41.5,12.4,29.88,NE,45,0.0,0.0,30,0.00,BKN,,0.00,0.0,WeatherDisplay:10.37,2013-02-24 14:48:00,
2013-02-24 15:53:00,41.9,12.7,29.88,NE,45,0.0,0.0,30,0.00,BKN,,0.00,0.0,WeatherDisplay:10.37,2013-02-24 14:53:00,
2013-02-24 15:58:00,41.9,12.7,29.88,NE,45,0.0,0.0,30,0.00,BKN,,0.00,0.0,WeatherDisplay:10.37,2013-02-24 14:58:00,
2013-02-24 16:03:00,42.1,12.8,29.88,NE,45,0.0,0.0,30,0.00,BKN,,0.00,0.0,WeatherDisplay:10.37,2013-02-24 15:03:00,
2013-02-24 16:08:00,42.1,12.8,29.88,NE,45,0.0,0.0,30,0.00,BKN,,0.00,0.0,WeatherDisplay:10.37,2013-02-24 15:08:00,
2013-02-24 16:15:00,42.3,13.0,29.88,NE,45,2.3,0.0,30,0.00,OVC,,0.00,0.0,WeatherDisplay:10.37,2013-02-24 15:15:00,
2013-02-24 16:20:00,42.3,13.0,29.88,NE,45,0.0,0.0,30,0.00,BKN,,0.00,0.0,WeatherDisplay:10.37,2013-02-24 15:20:00,
2013-02-24 16:25:00,42.3,13.0,29.88,NE,45,0.0,0.0,30,0.00,BKN,,0.00,0.0,WeatherDisplay:10.37,2013-02-24 15:25:00,
2013-02-24 16:30:00,42.4,13.9,29.88,NE,45,0.0,0.0,31,0.00,BKN,,0.00,0.0,WeatherDisplay:10.37,2013-02-24 15:30:00,
2013-02-24 16:35:00,42.4,13.9,29.88,NE,45,0.0,0.0,31,0.00,BKN,,0.00,0.0,WeatherDisplay:10.37,2013-02-24 15:35:00,
2013-02-24 16:40:00,42.4,13.9,29.88,NE,45,2.3,2.3,31,0.00,BKN,,0.00,0.0,WeatherDisplay:10.37,2013-02-24 15:40:00,
2013-02-24 16:45:00,41.5,12.4,29.88,NE,45,2.6,0.0,30,0.00,BKN,,0.00,0.0,WeatherDisplay:10.37,2013-02-24 15:45:00,
2013-02-24 16:50:00,41.5,12.4,29.88,NE,45,0.0,0.0,30,0.00,BKN,,0.00,0.0,WeatherDisplay:10.37,2013-02-24 15:50:00,
2013-02-24 16:55:00,41.7,13.3,29.88,NE,45,0.0,0.0,31,0.00,BKN,,0.00,0.0,WeatherDisplay:10.37,2013-02-24 15:55:00,
2013-02-24 17:00:00,41.7,13.3,29.88,NE,45,0.0,0.0,31,0.00,BKN,,0.00,0.0,WeatherDisplay:10.37,2013-02-24 16:00:00,
2013-02-24 17:05:00,41.2,12.8,29.88,NE,45,0.0,0.0,31,0.00,BKN,,0.00,0.0,WeatherDisplay:10.37,2013-02-24 16:05:00,
2013-02-24 17:10:00,41.2,12.8,29.88,NE,45,2.3,0.0,31,0.00,BKN,,0.00,0.0,WeatherDisplay:10.37,2013-02-24 16:10:00,
2013-02-24 17:15:00,41.2,12.8,29.88,NE,45,0.0,0.0,31,0.00,BKN,,0.00,0.0,WeatherDisplay:10.37,2013-02-24 16:15:00,
2013-02-24 17:20:00,40.8,12.5,29.91,NE,45,3.5,3.5,31,0.00,BKN,,0.00,0.0,WeatherDisplay:10.37,2013-02-24 16:20:00,
2013-02-24 17:25:00,40.6,12.3,29.91,NE,45,3.5,3.5,31,0.00,BKN,,0.00,0.0,WeatherDisplay:10.37,2013-02-24 16:25:00,
2013-02-24 17:30:00,40.6,13.0,29.91,NE,45,2.3,0.0,32,0.00,BKN,,0.00,0.0,WeatherDisplay:10.37,2013-02-24 16:30:00,
2013-02-24 17:35:00,40.5,12.9,29.88,NE,45,2.6,2.6,32,0.00,BKN,,0.00,0.0,WeatherDisplay:10.37,2013-02-24 16:35:00,
2013-02-24 17:40:00,40.5,12.9,29.88,NE,45,2.6,2.6,32,0.00,BKN,,0.00,0.0,WeatherDisplay:10.37,2013-02-24 16:40:00,
2013-02-24 17:45:00,40.3,12.7,29.88,NE,45,0.0,0.0,32,0.00,BKN,,0.00,0.0,WeatherDisplay:10.37,2013-02-24 16:45:00,
2013-02-24 17:50:00,40.3,13.4,29.88,NE,45,0.0,0.0,33,0.00,BKN,,0.00,0.0,WeatherDisplay:10.37,2013-02-24 16:50:00,
2013-02-24 17:55:00,39.7,12.9,29.88,East,90,5.8,5.8,33,0.00,BKN,,0.00,0.0,WeatherDisplay:10.37,2013-02-24 16:55:00,
2013-02-24 18:00:00,39.4,11.9,29.88,East,90,5.8,5.8,32,0.00,BKN,,0.00,0.0,WeatherDisplay:10.37,2013-02-24 17:00:00,
2013-02-24 18:05:00,39.0,12.3,29.91,East,90,2.6,2.6,33,0.00,BKN,,0.00,0.0,WeatherDisplay:10.37,2013-02-24 17:05:00,
2013-02-24 18:10:00,38.8,12.1,29.91,East,90,2.6,2.6,33,0.00,BKN,,0.00,0.0,WeatherDisplay:10.37,2013-02-24 17:10:00,
2013-02-24 18:15:00,38.7,12.0,29.91,East,90,2.3,0.0,33,0.00,BKN,,0.00,0.0,WeatherDisplay:10.37,2013-02-24 17:15:00,
2013-02-24 18:20:00,38.5,11.8,29.91,East,90,3.6,0.0,33,0.00,BKN,,0.00,0.0,WeatherDisplay:10.37,2013-02-24 17:20:00,
2013-02-24 18:25:00,38.3,11.7,29.91,East,90,2.6,2.6,33,0.00,BKN,,0.00,0.0,WeatherDisplay:10.37,2013-02-24 17:25:00,
2013-02-24 18:30:00,38.1,12.2,29.91,East,90,3.5,3.5,34,0.00,BKN,,0.00,0.0,WeatherDisplay:10.37,2013-02-24 17:30:00,
2013-02-24 18:35:00,37.9,12.7,29.91,East,90,3.5,3.5,35,0.00,BKN,,0.00,0.0,WeatherDisplay:10.37,2013-02-24 17:35:00,
2013-02-24 18:40:00,37.9,12.7,29.91,East,90,3.5,3.5,35,0.00,BKN,,0.00,0.0,WeatherDisplay:10.37,2013-02-24 17:40:00,
2013-02-24 18:45:00,37.4,11.5,29.91,East,90,3.5,3.5,34,0.00,BKN,,0.00,0.0,WeatherDisplay:10.37,2013-02-24 17:45:00,
2013-02-24 18:50:00,37.2,12.7,29.94,East,90,0.0,0.0,36,0.00,BKN,,0.00,0.0,WeatherDisplay:10.37,2013-02-24 17:50:00,
2013-02-24 18:55:00,37.0,12.5,29.94,East,90,2.3,2.3,36,0.00,BKN,,0.00,0.0,WeatherDisplay:10.37,2013-02-24 17:55:00,
2013-02-24 19:00:00,37.0,12.5,29.94,East,90,2.3,0.0,36,0.00,BKN,,0.00,0.0,WeatherDisplay:10.37,2013-02-24 18:00:00,
2013-02-24 19:05:00,36.9,12.4,29.91,East,90,0.0,0.0,36,0.00,BKN,,0.00,0.0,WeatherDisplay:10.37,2013-02-24 18:05:00,
2013-02-24 19:10:00,36.5,13.3,29.91,East,90,0.0,0.0,38,0.00,BKN,,0.00,0.0,WeatherDisplay:10.37,2013-02-24 18:10:00,
2013-02-24 19:15:00,36.3,13.7,29.91,East,90,3.6,0.0,39,0.00,BKN,,0.00,0.0,WeatherDisplay:10.37,2013-02-24 18:15:00,
2013-02-24 19:20:00,36.1,13.5,29.91,East,90,3.5,0.0,39,0.00,BKN,,0.00,0.0,WeatherDisplay:10.37,2013-02-24 18:20:00,
2013-02-24 19:25:00,36.1,13.5,29.91,East,90,0.0,0.0,39,0.00,BKN,,0.00,0.0,WeatherDisplay:10.37,2013-02-24 18:25:00,
2013-02-24 19:30:00,36.1,13.5,29.91,East,90,3.5,3.5,39,0.00,BKN,,0.00,0.0,WeatherDisplay:10.37,2013-02-24 18:30:00,
2013-02-24 19:35:00,36.0,13.4,29.91,East,90,4.6,4.6,39,0.00,BKN,,0.00,0.0,WeatherDisplay:10.37,2013-02-24 18:35:00,
2013-02-24 19:40:00,35.8,13.8,29.91,East,90,2.6,2.6,40,0.00,BKN,,0.00,0.0,WeatherDisplay:10.37,2013-02-24 18:40:00,
2013-02-24 19:45:00,35.6,13.6,29.91,East,90,0.0,0.0,40,0.00,BKN,,0.00,0.0,WeatherDisplay:10.37,2013-02-24 18:45:00,
2013-02-24 19:50:00,35.2,13.3,29.94,East,90,0.0,0.0,40,0.00,BKN,,0.00,0.0,WeatherDisplay:10.37,2013-02-24 18:50:00,
2013-02-24 19:55:00,35.1,13.7,29.94,East,90,0.0,0.0,41,0.00,BKN,,0.00,0.0,WeatherDisplay:10.37,2013-02-24 18:55:00,
2013-02-24 20:00:00,34.5,14.3,29.94,East,90,0.0,0.0,43,0.00,BKN,,0.00,0.0,WeatherDisplay:10.37,2013-02-24 19:00:00,
2013-02-24 20:05:00,34.3,14.1,29.94,East,90,0.0,0.0,43,0.00,BKN,,0.00,0.0,WeatherDisplay:10.37,2013-02-24 19:05:00,
2013-02-24 20:10:00,34.0,14.8,29.94,East,90,0.0,0.0,45,0.00,BKN,,0.00,0.0,WeatherDisplay:10.37,2013-02-24 19:10:00,
2013-02-24 20:15:00,33.6,15.0,29.94,East,90,0.0,0.0,46,0.00,BKN,,0.00,0.0,WeatherDisplay:10.37,2013-02-24 19:15:00,
2013-02-24 20:20:00,33.3,16.1,29.94,East,90,0.0,0.0,49,0.00,SCT,,0.00,0.0,WeatherDisplay:10.37,2013-02-24 19:20:00,
2013-02-24 20:25:00,33.3,16.1,29.94,East,90,0.0,0.0,49,0.00,SCT,,0.00,0.0,WeatherDisplay:10.37,2013-02-24 19:25:00,
2013-02-24 20:30:00,33.3,16.1,29.94,East,90,0.0,0.0,49,0.00,SCT,,0.00,0.0,WeatherDisplay:10.37,2013-02-24 19:30:00,
2013-02-24 20:35:00,33.3,16.1,29.97,East,90,0.0,0.0,49,0.00,SCT,,0.00,0.0,WeatherDisplay:10.37,2013-02-24 19:35:00,
2013-02-24 20:40:00,33.3,16.1,29.97,East,90,0.0,0.0,49,0.00,SCT,,0.00,0.0,WeatherDisplay:10.37,2013-02-24 19:40:00,
2013-02-24 20:45:00,33.3,16.1,29.97,East,90,0.0,0.0,49,0.00,SCT,,0.00,0.0,WeatherDisplay:10.37,2013-02-24 19:45:00,
2013-02-24 20:50:00,33.1,15.5,29.97,East,90,0.0,0.0,48,0.00,FEW,,0.00,0.0,WeatherDisplay:10.37,2013-02-24 19:50:00,
2013-02-24 20:55:00,32.7,15.6,29.97,East,90,0.0,0.0,49,0.00,FEW,,0.00,0.0,WeatherDisplay:10.37,2013-02-24 19:55:00,
2013-02-24 21:00:00,32.7,15.6,29.97,East,90,0.0,0.0,49,0.00,FEW,,0.00,0.0,WeatherDisplay:10.37,2013-02-24 20:00:00,
2013-02-24 21:05:00,32.7,15.6,29.97,East,90,0.0,0.0,49,0.00,FEW,,0.00,0.0,WeatherDisplay:10.37,2013-02-24 20:05:00,
2013-02-24 21:10:00,32.9,15.3,29.97,East,90,0.0,0.0,48,0.00,FEW,,0.00,0.0,WeatherDisplay:10.37,2013-02-24 20:10:00,
2013-02-24 21:15:00,32.9,15.8,29.97,East,90,0.0,0.0,49,0.00,FEW,,0.00,0.0,WeatherDisplay:10.37,2013-02-24 20:15:00,
2013-02-24 21:20:00,32.9,15.8,29.97,East,90,0.0,0.0,49,0.00,FEW,,0.00,0.0,WeatherDisplay:10.37,2013-02-24 20:20:00,
2013-02-24 21:25:00,32.9,15.8,29.97,East,90,0.0,0.0,49,0.00,FEW,,0.00,0.0,WeatherDisplay:10.37,2013-02-24 20:25:00,
2013-02-24 21:30:00,32.9,15.8,29.97,East,90,0.0,0.0,49,0.00,FEW,,0.00,0.0,WeatherDisplay:10.37,2013-02-24 20:30:00,
2013-02-24 21:35:00,32.9,15.8,29.97,East,90,0.0,0.0,49,0.00,FEW,,0.00,0.0,WeatherDisplay:10.37,2013-02-24 20:35:00,
2013-02-24 21:40:00,32.0,16.3,29.97,East,90,0.0,0.0,52,0.00,FEW,,0.00,0.0,WeatherDisplay:10.37,2013-02-24 20:40:00,
2013-02-24 21:45:00,32.0,16.3,29.97,East,90,0.0,0.0,52,0.00,FEW,,0.00,0.0,WeatherDisplay:10.37,2013-02-24 20:45:00,
2013-02-24 21:50:00,32.0,16.3,29.97,East,90,0.0,0.0,52,0.00,FEW,,0.00,0.0,WeatherDisplay:10.37,2013-02-24 20:50:00,
2013-02-24 21:55:00,31.8,16.6,29.97,East,90,0.0,0.0,53,0.00,FEW,,0.00,0.0,WeatherDisplay:10.37,2013-02-24 20:55:00,
2013-02-24 22:00:00,31.8,17.0,29.97,East,90,0.0,0.0,54,0.00,FEW,,0.00,0.0,WeatherDisplay:10.37,2013-02-24 21:00:00,
2013-02-24 22:05:00,31.8,17.0,29.97,East,90,0.0,0.0,54,0.00,FEW,,0.00,0.0,WeatherDisplay:10.37,2013-02-24 21:05:00,
2013-02-24 22:10:00,31.5,16.7,29.97,East,90,0.0,0.0,54,0.00,FEW,,0.00,0.0,WeatherDisplay:10.37,2013-02-24 21:10:00,
2013-02-24 22:15:00,31.8,16.6,29.97,East,90,0.0,0.0,53,0.00,FEW,,0.00,0.0,WeatherDisplay:10.37,2013-02-24 21:15:00,
2013-02-24 22:20:00,32.0,17.2,29.97,East,90,0.0,0.0,54,0.00,FEW,,0.00,0.0,WeatherDisplay:10.37,2013-02-24 21:20:00,
2013-02-24 22:25:00,31.8,17.0,29.97,East,90,0.0,0.0,54,0.00,FEW,,0.00,0.0,WeatherDisplay:10.37,2013-02-24 21:25:00,
2013-02-24 22:30:00,31.8,17.0,29.97,East,90,0.0,0.0,54,0.00,FEW,,0.00,0.0,WeatherDisplay:10.37,2013-02-24 21:30:00,
2013-02-24 22:35:00,31.6,17.7,29.97,East,90,0.0,0.0,56,0.00,FEW,,0.00,0.0,WeatherDisplay:10.37,2013-02-24 21:35:00,
2013-02-24 22:40:00,31.6,17.7,29.97,East,90,0.0,0.0,56,0.00,FEW,,0.00,0.0,WeatherDisplay:10.37,2013-02-24 21:40:00,
2013-02-24 22:45:00,31.5,18.8,29.97,East,90,0.0,0.0,59,0.00,FEW,,0.00,0.0,WeatherDisplay:10.37,2013-02-24 21:45:00,
2013-02-24 22:50:00,31.5,19.2,29.97,East,90,0.0,0.0,60,0.00,FEW,,0.00,0.0,WeatherDisplay:10.37,2013-02-24 21:50:00,
2013-02-24 22:55:00,31.3,18.6,29.97,East,90,2.3,0.0,59,0.00,FEW,,0.00,0.0,WeatherDisplay:10.37,2013-02-24 21:55:00,
2013-02-24 23:00:00,31.3,17.4,29.97,East,90,2.3,0.0,56,0.00,FEW,,0.00,0.0,WeatherDisplay:10.37,2013-02-24 22:00:00,
2013-02-24 23:05:00,31.5,17.1,29.97,East,90,0.0,0.0,55,0.00,FEW,,0.00,0.0,WeatherDisplay:10.37,2013-02-24 22:05:00,
2013-02-24 23:10:00,31.5,17.1,29.97,East,90,0.0,0.0,55,0.00,FEW,,0.00,0.0,WeatherDisplay:10.37,2013-02-24 22:10:00,
2013-02-24 23:15:00,31.5,18.0,29.97,East,90,0.0,0.0,57,0.00,FEW,,0.00,0.0,WeatherDisplay:10.37,2013-02-24 22:15:00,
2013-02-24 23:20:00,31.1,17.6,29.97,East,90,0.0,0.0,57,0.00,FEW,,0.00,0.0,WeatherDisplay:10.37,2013-02-24 22:20:00,
2013-02-24 23:25:00,30.9,17.9,29.97,East,90,0.0,0.0,58,0.00,FEW,,0.00,0.0,WeatherDisplay:10.37,2013-02-24 22:25:00,
2013-02-24 23:30:00,30.7,17.3,29.97,East,90,0.0,0.0,57,0.00,FEW,,0.00,0.0,WeatherDisplay:10.37,2013-02-24 22:30:00,
2013-02-24 23:35:00,30.7,17.3,29.97,East,90,0.0,0.0,57,0.00,FEW,,0.00,0.0,WeatherDisplay:10.37,2013-02-24 22:35:00,
2013-02-24 23:40:00,30.6,16.7,29.97,East,90,0.0,0.0,56,0.00,FEW,,0.00,0.0,WeatherDisplay:10.37,2013-02-24 22:40:00,
2013-02-24 23:45:00,30.9,17.0,29.97,East,90,0.0,0.0,56,0.00,FEW,,0.00,0.0,WeatherDisplay:10.37,2013-02-24 22:45:00,
2013-02-24 23:50:00,30.7,16.5,29.97,East,90,0.0,0.0,55,0.00,CLR,,0.00,0.0,WeatherDisplay:10.37,2013-02-24 22:50:00,
2013-02-24 23:55:00,30.9,17.0,29.97,East,90,0.0,0.0,56,0.00,CLR,,0.00,0.0,WeatherDisplay:10.37,2013-02-24 22:55:00,